createdAt,value
2022-11-03T00:01:39.864Z,12.43
2022-11-03T00:04:12.409Z,12.17
2022-11-03T00:06:42.714Z,11.20
2022-11-03T00:09:13.445Z,10.03
2022-11-03T00:11:44.463Z,7.50
2022-11-03T00:14:14.882Z,10.60
2022-11-03T00:16:44.720Z,10.83
2022-11-03T00:19:17.597Z,8.57
2022-11-03T00:21:47.357Z,11.10
2022-11-03T00:24:16.481Z,11.47
2022-11-03T00:26:45.750Z,9.03
2022-11-03T00:29:16.876Z,10.30
2022-11-03T00:31:46.881Z,11.77
2022-11-03T00:34:17.363Z,8.93
2022-11-03T00:36:46.960Z,13.03
2022-11-03T00:39:16.023Z,8.80
2022-11-03T00:41:45.240Z,6.87
2022-11-03T00:44:14.360Z,10.20
2022-11-03T00:46:43.448Z,8.07
2022-11-03T00:49:12.462Z,8.33
2022-11-03T00:51:42.900Z,9.97
2022-11-03T00:54:12.273Z,11.73
2022-11-03T00:56:44.553Z,9.17
2022-11-03T00:59:13.767Z,9.90
2022-11-03T01:01:47.060Z,7.43
2022-11-03T01:04:35.182Z,9.63
2022-11-03T01:07:07.875Z,8.27
2022-11-03T01:09:39.204Z,7.87
2022-11-03T01:12:10.509Z,16.13
2022-11-03T01:14:41.883Z,9.53
2022-11-03T01:17:12.798Z,10.33
2022-11-03T01:19:41.843Z,10.80
2022-11-03T01:22:12.852Z,10.40
2022-11-03T01:24:42.741Z,6.87
2022-11-03T01:27:13.988Z,11.00
2022-11-03T01:29:43.100Z,7.13
2022-11-03T01:32:12.966Z,11.60
2022-11-03T01:34:42.190Z,12.57
2022-11-03T01:37:12.681Z,6.60
2022-11-03T01:39:41.844Z,6.90
2022-11-03T01:42:14.548Z,9.50
2022-11-03T01:44:46.761Z,7.67
2022-11-03T01:47:22.775Z,6.80
2022-11-03T01:49:56.939Z,8.37
2022-11-03T01:52:31.121Z,7.03
2022-11-03T01:55:03.693Z,8.23
2022-11-03T01:57:38.884Z,6.27
2022-11-03T02:00:09.824Z,7.13
2022-11-03T02:02:42.109Z,9.80
2022-11-03T02:05:13.375Z,5.37
2022-11-03T02:07:51.248Z,9.50
2022-11-03T02:10:20.526Z,6.47
2022-11-03T02:12:50.449Z,8.90
2022-11-03T02:15:21.818Z,8.77
2022-11-03T02:17:53.717Z,7.17
2022-11-03T02:20:25.948Z,9.63
2022-11-03T02:23:22.908Z,6.90
2022-11-03T02:25:55.894Z,11.23
2022-11-03T02:28:28.520Z,9.03
2022-11-03T02:31:04.876Z,8.33
2022-11-03T02:33:43.290Z,12.10
2022-11-03T02:36:18.598Z,11.87
2022-11-03T02:38:51.653Z,8.53
2022-11-03T02:41:24.709Z,11.17
2022-11-03T02:43:56.204Z,14.80
2022-11-03T02:46:27.798Z,11.47
2022-11-03T02:48:57.554Z,8.17
2022-11-03T02:51:27.141Z,10.13
2022-11-03T02:54:06.024Z,15.37
2022-11-03T02:56:43.244Z,11.73
2022-11-03T02:59:16.664Z,10.03
2022-11-03T03:01:52.942Z,10.57
2022-11-03T03:04:28.503Z,12.33
2022-11-03T03:07:03.228Z,15.20
2022-11-03T03:09:37.560Z,10.87
2022-11-03T03:12:10.259Z,12.97
2022-11-03T03:14:42.071Z,11.83
2022-11-03T03:17:16.001Z,13.67
2022-11-03T03:19:51.349Z,13.87
2022-11-03T03:22:26.378Z,13.13
2022-11-03T03:25:02.381Z,10.63
2022-11-03T03:27:35.608Z,13.33
2022-11-03T03:30:07.417Z,14.03
2022-11-03T03:32:39.631Z,10.97
2022-11-03T03:35:13.197Z,11.30
2022-11-03T03:37:47.935Z,11.33
2022-11-03T03:40:23.033Z,10.87
2022-11-03T03:42:55.685Z,12.10
2022-11-03T03:45:27.575Z,11.00
2022-11-03T03:47:57.925Z,12.03
2022-11-03T03:50:30.960Z,10.37
2022-11-03T03:53:03.275Z,13.57
2022-11-03T03:55:37.644Z,11.60
2022-11-03T03:58:09.473Z,18.67
2022-11-03T04:00:40.325Z,13.37
2022-11-03T04:03:18.053Z,13.60
2022-11-03T04:05:48.929Z,13.70
2022-11-03T04:08:19.038Z,11.83
2022-11-03T04:11:02.335Z,19.17
2022-11-03T04:13:50.860Z,14.03
2022-11-03T04:16:37.275Z,12.17
2022-11-03T04:19:23.778Z,10.03
2022-11-03T04:22:10.327Z,15.17
2022-11-03T04:24:39.360Z,13.30
2022-11-03T04:27:28.116Z,12.97
2022-11-03T04:30:03.503Z,13.57
2022-11-03T04:32:32.925Z,10.30
2022-11-03T04:35:02.433Z,12.93
2022-11-03T04:37:31.578Z,12.40
2022-11-03T04:40:01.957Z,15.50
2022-11-03T04:42:34.545Z,12.73
2022-11-03T04:45:18.350Z,10.97
2022-11-03T04:47:47.535Z,12.13
2022-11-03T04:50:20.766Z,13.33
2022-11-03T04:52:50.766Z,15.50
2022-11-03T04:55:21.976Z,18.27
2022-11-03T04:57:56.328Z,12.90
2022-11-03T05:00:27.033Z,14.27
2022-11-03T05:02:56.685Z,12.13
2022-11-03T05:05:27.920Z,13.17
2022-11-03T05:08:00.084Z,15.37
2022-11-03T05:10:31.268Z,17.80
2022-11-03T05:13:02.468Z,14.17
2022-11-03T05:15:37.037Z,16.63
2022-11-03T05:18:18.316Z,12.70
2022-11-03T05:20:51.978Z,11.93
2022-11-03T05:23:22.862Z,11.50
2022-11-03T05:25:54.077Z,12.43
2022-11-03T05:28:29.686Z,11.23
2022-11-03T05:31:00.197Z,14.30
2022-11-03T05:33:31.291Z,15.13
2022-11-03T05:36:03.695Z,13.50
2022-11-03T05:38:34.368Z,12.23
2022-11-03T05:41:03.757Z,14.60
2022-11-03T05:43:32.989Z,12.13
2022-11-03T05:48:38.525Z,16.63
2022-11-03T05:51:21.007Z,15.03
2022-11-03T05:53:53.976Z,13.13
2022-11-03T05:56:25.583Z,12.93
2022-11-03T05:58:57.053Z,11.60
2022-11-03T06:01:32.145Z,11.50
2022-11-03T06:04:02.933Z,12.83
2022-11-03T06:06:36.703Z,13.23
2022-11-03T06:09:18.056Z,15.87
2022-11-03T06:11:47.960Z,14.17
2022-11-03T06:14:24.354Z,14.73
2022-11-03T06:16:58.553Z,13.97
2022-11-03T06:19:31.666Z,14.10
2022-11-03T06:22:04.460Z,15.93
2022-11-03T06:24:35.282Z,13.47
2022-11-03T06:27:04.951Z,15.50
2022-11-03T06:29:36.012Z,15.80
2022-11-03T06:32:14.044Z,14.20
2022-11-03T06:34:46.082Z,16.23
2022-11-03T06:37:27.153Z,12.67
2022-11-03T06:40:02.141Z,17.37
2022-11-03T06:42:34.961Z,12.47
2022-11-03T06:45:14.522Z,15.43
2022-11-03T06:47:45.514Z,14.07
2022-11-03T06:50:24.452Z,10.33
2022-11-03T06:52:56.153Z,12.27
2022-11-03T06:55:27.852Z,16.50
2022-11-03T06:58:00.782Z,11.43
2022-11-03T07:00:34.582Z,14.93
2022-11-03T07:03:10.619Z,10.83
2022-11-03T07:05:40.863Z,11.70
2022-11-03T07:08:24.243Z,12.07
2022-11-03T07:11:02.268Z,15.73
2022-11-03T07:13:35.032Z,10.80
2022-11-03T07:16:04.792Z,10.73
2022-11-03T07:18:41.214Z,19.17
2022-11-03T07:21:31.216Z,12.40
2022-11-03T07:24:04.184Z,13.77
2022-11-03T07:26:35.473Z,11.27
2022-11-03T07:29:05.023Z,12.13
2022-11-03T07:31:35.225Z,8.33
2022-11-03T07:34:13.858Z,9.00
2022-11-03T07:36:45.684Z,10.80
2022-11-03T07:39:20.192Z,8.48
2022-11-03T07:41:50.801Z,9.07
2022-11-03T07:44:22.441Z,12.07
2022-11-03T07:46:52.716Z,9.48
2022-11-03T07:49:29.842Z,8.80
2022-11-03T07:52:01.362Z,10.27
2022-11-03T07:54:35.216Z,9.70
2022-11-03T07:57:13.295Z,10.23
2022-11-03T07:59:45.947Z,9.82
2022-11-03T08:02:27.972Z,11.13
2022-11-03T08:04:59.021Z,11.23
2022-11-03T08:07:29.704Z,11.98
2022-11-03T08:09:59.550Z,12.05
2022-11-03T08:12:29.545Z,10.05
2022-11-03T08:14:59.123Z,11.00
2022-11-03T08:17:29.092Z,15.07
2022-11-03T08:20:00.726Z,10.25
2022-11-03T08:22:30.434Z,10.13
2022-11-03T08:25:00.494Z,9.50
2022-11-03T08:27:30.225Z,11.82
2022-11-03T08:29:59.682Z,7.40
2022-11-03T08:32:29.625Z,7.35
2022-11-03T08:35:00.884Z,12.18
2022-11-03T08:37:30.775Z,8.75
2022-11-03T08:40:00.664Z,7.88
2022-11-03T08:42:30.523Z,10.73
2022-11-03T08:45:03.897Z,9.57
2022-11-03T08:47:33.835Z,9.25
2022-11-03T08:50:04.542Z,13.15
2022-11-03T08:52:34.257Z,16.40
2022-11-03T08:55:03.897Z,37.50
2022-11-03T08:57:33.298Z,28.65
2022-11-03T09:00:02.593Z,22.52
2022-11-03T09:02:32.551Z,14.93
2022-11-03T09:05:08.329Z,22.83
2022-11-03T09:10:33.276Z,11.52
2022-11-03T09:13:06.018Z,9.20
2022-11-03T09:15:39.253Z,9.43
2022-11-03T09:18:08.988Z,13.07
2022-11-03T09:20:39.912Z,11.40
2022-11-03T09:23:09.184Z,10.20
2022-11-03T09:25:39.024Z,10.65
2022-11-03T09:28:09.292Z,6.10
2022-11-03T09:30:38.944Z,11.35
2022-11-03T09:33:17.230Z,9.95
2022-11-03T09:35:48.387Z,8.30
2022-11-03T09:38:17.922Z,10.32
2022-11-03T09:43:18.661Z,6.75
2022-11-03T09:45:48.094Z,7.82
2022-11-03T09:48:17.943Z,9.15
2022-11-03T09:50:53.312Z,11.05
2022-11-03T09:53:25.693Z,11.30
2022-11-03T09:55:57.112Z,6.80
2022-11-03T09:58:27.544Z,10.98
2022-11-03T10:00:59.207Z,11.20
2022-11-03T10:03:29.446Z,7.93
2022-11-03T10:06:00.862Z,8.77
2022-11-03T10:08:33.524Z,8.90
2022-11-03T10:11:03.647Z,9.02
2022-11-03T10:13:38.225Z,9.27
2022-11-03T10:16:09.569Z,8.88
2022-11-03T10:18:39.349Z,10.80
2022-11-03T10:21:20.556Z,11.52
2022-11-03T10:23:50.985Z,15.85
2022-11-03T10:26:21.657Z,10.63
2022-11-03T10:29:10.124Z,8.05
2022-11-03T10:31:40.583Z,8.30
2022-11-03T10:34:27.746Z,7.60
2022-11-03T10:37:25.290Z,8.48
2022-11-03T10:39:56.036Z,10.75
2022-11-03T10:42:31.988Z,10.10
2022-11-03T10:45:18.253Z,16.33
2022-11-03T10:48:01.760Z,6.88
2022-11-03T10:50:31.727Z,9.13
2022-11-03T10:53:03.949Z,7.90
2022-11-03T10:55:33.391Z,9.07
2022-11-03T10:58:02.640Z,9.13
2022-11-03T11:00:32.106Z,7.55
2022-11-03T11:03:02.396Z,7.07
2022-11-03T11:05:32.006Z,13.27
2022-11-03T11:08:03.089Z,8.32
2022-11-03T11:10:33.177Z,11.70
2022-11-03T11:13:07.956Z,13.90
2022-11-03T11:15:40.534Z,10.75
2022-11-03T11:18:10.135Z,9.68
2022-11-03T11:20:41.672Z,7.43
2022-11-03T11:23:52.750Z,9.75
2022-11-03T11:26:46.127Z,5.93
2022-11-03T11:29:45.618Z,7.90
2022-11-03T11:32:48.190Z,8.70
2022-11-03T11:35:20.319Z,5.88
2022-11-03T11:37:49.979Z,9.45
2022-11-03T11:40:53.848Z,6.90
2022-11-03T11:43:31.117Z,6.80
2022-11-03T11:46:41.737Z,11.05
2022-11-03T11:49:29.088Z,5.13
2022-11-03T11:52:03.822Z,9.38
2022-11-03T11:54:33.500Z,11.77
2022-11-03T11:57:03.018Z,9.75
2022-11-03T11:59:33.871Z,5.00
2022-11-03T12:02:04.787Z,7.40
2022-11-03T12:04:34.930Z,6.15
2022-11-03T12:07:04.121Z,5.55
2022-11-03T12:09:34.106Z,9.15
2022-11-03T12:12:08.680Z,6.80
2022-11-03T12:14:40.386Z,5.82
2022-11-03T12:17:34.819Z,7.93
2022-11-03T12:20:36.959Z,8.30
2022-11-03T12:23:06.243Z,6.57
2022-11-03T12:25:37.640Z,6.80
2022-11-03T12:28:07.004Z,6.38
2022-11-03T12:30:40.215Z,6.72
2022-11-03T12:33:11.044Z,9.13
2022-11-03T12:35:40.405Z,7.85
2022-11-03T12:38:10.073Z,5.10
2022-11-03T12:40:39.375Z,5.88
2022-11-03T12:43:09.591Z,9.07
2022-11-03T12:45:41.673Z,11.23
2022-11-03T12:48:11.308Z,8.23
2022-11-03T12:50:41.046Z,5.05
2022-11-03T12:53:10.936Z,4.40
2022-11-03T12:55:43.669Z,6.03
2022-11-03T12:58:14.357Z,6.95
2022-11-03T13:00:49.943Z,9.23
2022-11-03T13:03:24.308Z,6.07
2022-11-03T13:05:53.467Z,8.43
2022-11-03T13:08:23.425Z,4.85
2022-11-03T13:10:52.868Z,4.90
2022-11-03T13:13:22.186Z,6.80
2022-11-03T13:15:53.336Z,5.70
2022-11-03T13:18:22.736Z,6.65
2022-11-03T13:20:53.587Z,5.65
2022-11-03T13:23:23.369Z,6.50
2022-11-03T13:25:52.735Z,5.55
2022-11-03T13:28:22.024Z,11.88
2022-11-03T13:30:52.676Z,7.35
2022-11-03T13:33:21.897Z,6.00
2022-11-03T13:35:51.199Z,6.22
2022-11-03T13:38:21.595Z,6.00
2022-11-03T13:40:57.795Z,8.63
2022-11-03T13:43:29.276Z,8.00
2022-11-03T13:46:02.801Z,5.68
2022-11-03T13:51:21.887Z,7.05
2022-11-03T13:59:30.002Z,9.52
2022-11-03T14:04:51.238Z,9.50
2022-11-03T14:07:20.625Z,6.25
2022-11-03T14:09:50.032Z,6.53
2022-11-03T14:12:36.155Z,5.70
2022-11-03T14:15:09.124Z,7.30
2022-11-03T14:17:40.826Z,6.78
2022-11-03T14:20:13.408Z,9.55
2022-11-03T14:22:42.926Z,6.60
2022-11-03T14:25:12.130Z,6.00
2022-11-03T14:27:41.869Z,10.48
2022-11-03T14:30:13.566Z,6.60
2022-11-03T14:32:44.535Z,6.13
2022-11-03T14:35:14.076Z,8.90
2022-11-03T14:37:43.325Z,6.85
2022-11-03T14:40:33.664Z,4.83
2022-11-03T14:43:01.876Z,9.23
2022-11-03T14:45:35.833Z,7.57
2022-11-03T14:48:09.608Z,7.50
2022-11-03T14:50:39.056Z,9.32
2022-11-03T14:53:08.362Z,11.87
2022-11-03T14:55:38.384Z,9.10
2022-11-03T14:58:09.124Z,6.10
2022-11-03T15:00:39.154Z,9.10
2022-11-03T15:03:10.206Z,7.30
2022-11-03T15:05:45.508Z,9.80
2022-11-03T15:08:16.214Z,6.90
2022-11-03T15:10:46.185Z,7.50
2022-11-03T15:13:16.396Z,8.03
2022-11-03T15:15:46.543Z,7.10
2022-11-03T15:18:18.633Z,8.37
2022-11-03T15:20:48.376Z,7.77
2022-11-03T15:26:07.716Z,9.90
2022-11-03T15:28:37.336Z,11.33
2022-11-03T15:31:07.246Z,10.70
2022-11-03T15:33:38.235Z,14.63
2022-11-03T15:36:09.417Z,15.07
2022-11-03T15:38:38.946Z,10.27
2022-11-03T15:41:17.725Z,13.47
2022-11-03T15:43:49.228Z,13.57
2022-11-03T15:46:20.278Z,14.57
2022-11-03T15:48:51.258Z,18.87
2022-11-03T15:51:20.539Z,18.07
2022-11-03T15:53:54.932Z,23.03
2022-11-03T15:56:26.267Z,30.00
2022-11-03T15:58:55.899Z,25.47
2022-11-03T16:01:26.194Z,20.70
2022-11-03T16:03:57.456Z,24.63
2022-11-03T16:06:46.695Z,24.60
2022-11-03T16:09:16.198Z,22.37
2022-11-03T16:11:45.407Z,18.63
2022-11-03T16:14:15.396Z,17.27
2022-11-03T16:16:45.346Z,23.77
2022-11-03T16:19:16.727Z,19.57
2022-11-03T16:21:46.279Z,17.93
2022-11-03T16:24:15.595Z,18.07
2022-11-03T16:26:45.367Z,16.07
2022-11-03T16:29:14.759Z,14.40
2022-11-03T16:31:44.049Z,15.63
2022-11-03T16:34:13.596Z,21.90
2022-11-03T16:36:44.777Z,19.43
2022-11-03T16:39:14.261Z,23.00
2022-11-03T16:41:43.676Z,24.63
2022-11-03T16:44:13.208Z,28.43
2022-11-03T16:46:42.737Z,32.87
2022-11-03T16:49:12.213Z,28.00
2022-11-03T16:51:41.797Z,27.20
2022-11-03T16:54:12.596Z,27.97
2022-11-03T16:56:44.709Z,28.13
2022-11-03T16:59:14.668Z,24.20
2022-11-03T17:01:44.110Z,18.90
2022-11-03T17:04:13.497Z,21.10
2022-11-03T17:06:42.896Z,26.77
2022-11-03T17:09:14.747Z,22.63
2022-11-03T17:11:44.147Z,30.33
2022-11-03T17:14:14.711Z,24.07
2022-11-03T17:16:46.860Z,24.63
2022-11-03T17:19:17.161Z,29.60
2022-11-03T17:21:46.617Z,20.77
2022-11-03T17:24:17.247Z,19.80
2022-11-03T17:26:57.410Z,23.53
2022-11-03T17:29:34.857Z,26.07
2022-11-03T17:32:06.188Z,24.70
2022-11-03T17:34:35.656Z,24.57
2022-11-03T17:37:05.306Z,24.17
2022-11-03T17:39:39.498Z,26.37
2022-11-03T17:42:20.096Z,21.70
2022-11-03T17:44:51.432Z,22.67
2022-11-03T17:47:21.517Z,22.20
2022-11-03T17:49:54.967Z,21.37
2022-11-03T17:52:28.827Z,19.80
2022-11-03T17:55:01.386Z,21.37
2022-11-03T17:57:31.226Z,19.30
2022-11-03T18:00:01.946Z,23.57
2022-11-03T18:02:41.905Z,24.50
2022-11-03T18:05:22.908Z,24.27
2022-11-03T18:07:53.396Z,26.10
2022-11-03T18:10:28.014Z,23.30
2022-11-03T18:13:21.512Z,27.77
2022-11-03T18:15:54.376Z,21.20
2022-11-03T18:18:28.308Z,24.60
2022-11-03T18:20:58.829Z,22.37
2022-11-03T18:23:31.626Z,20.57
2022-11-03T18:26:04.437Z,23.60
2022-11-03T18:28:33.847Z,20.57
2022-11-03T18:31:05.027Z,22.77
2022-11-03T18:33:37.788Z,27.47
2022-11-03T18:36:09.084Z,28.60
2022-11-03T18:38:42.104Z,22.87
2022-11-03T18:41:33.308Z,25.87
2022-11-03T18:44:03.716Z,26.87
2022-11-03T18:46:34.796Z,26.20
2022-11-03T18:49:04.937Z,23.13
2022-11-03T18:51:35.429Z,26.77
2022-11-03T18:54:11.585Z,25.53
2022-11-03T18:56:43.393Z,27.43
2022-11-03T18:59:22.214Z,23.90
2022-11-03T19:01:52.530Z,27.57
2022-11-03T19:04:28.167Z,32.20
2022-11-03T19:07:02.130Z,31.87
2022-11-03T19:09:32.149Z,27.03
2022-11-03T19:12:03.950Z,29.93
2022-11-03T19:14:38.327Z,28.33
2022-11-03T19:17:28.709Z,30.17
2022-11-03T19:19:59.445Z,26.80
2022-11-03T19:22:29.516Z,30.27
2022-11-03T19:24:59.780Z,24.90
2022-11-03T19:27:33.303Z,30.37
2022-11-03T19:30:05.907Z,29.43
2022-11-03T19:32:40.042Z,28.50
2022-11-03T19:35:21.738Z,29.80
2022-11-03T19:37:57.346Z,30.17
2022-11-03T19:40:27.528Z,30.37
2022-11-03T19:42:58.825Z,28.20
2022-11-03T19:45:29.733Z,27.53
2022-11-03T19:50:53.852Z,27.97
2022-11-03T19:53:28.108Z,27.83
2022-11-03T19:55:59.505Z,29.63
2022-11-03T19:58:31.737Z,26.10
2022-11-03T20:01:07.246Z,27.13
2022-11-03T20:03:38.553Z,32.40
2022-11-03T20:06:12.175Z,27.03
2022-11-03T20:08:45.854Z,30.60
2022-11-03T20:11:16.523Z,27.83
2022-11-03T20:13:47.905Z,34.53
2022-11-03T20:16:20.003Z,27.10
2022-11-03T20:18:50.649Z,32.03
2022-11-03T20:21:25.553Z,33.00
2022-11-03T20:23:57.386Z,32.80
2022-11-03T20:26:29.420Z,28.37
2022-11-03T20:29:02.516Z,28.57
2022-11-03T20:31:33.036Z,32.87
2022-11-03T20:34:02.423Z,30.03
2022-11-03T20:36:33.956Z,32.97
2022-11-03T20:39:11.493Z,29.50
2022-11-03T20:41:47.281Z,31.03
2022-11-03T20:44:19.063Z,27.07
2022-11-03T20:46:48.972Z,25.53
2022-11-03T20:49:18.727Z,32.10
2022-11-03T20:51:48.704Z,27.23
2022-11-03T20:54:19.847Z,28.17
2022-11-03T20:56:50.230Z,28.23
2022-11-03T20:59:25.074Z,32.70
2022-11-03T21:01:55.014Z,31.63
2022-11-03T21:04:24.363Z,27.30
2022-11-03T21:06:54.515Z,32.83
2022-11-03T21:09:24.553Z,27.03
2022-11-03T21:11:54.770Z,32.27
2022-11-03T21:14:27.706Z,29.67
2022-11-03T21:17:14.880Z,30.00
2022-11-03T21:19:58.109Z,28.43
2022-11-03T21:25:24.115Z,29.27
2022-11-03T21:27:55.222Z,33.27
2022-11-03T21:30:25.846Z,31.53
2022-11-03T21:32:55.384Z,34.47
2022-11-03T21:35:24.944Z,30.47
2022-11-03T21:37:54.368Z,27.10
2022-11-03T21:40:34.325Z,31.97
2022-11-03T21:43:21.273Z,26.30
2022-11-03T21:45:52.492Z,33.23
2022-11-03T21:48:39.325Z,31.40
2022-11-03T21:51:27.106Z,30.60
2022-11-03T21:53:56.435Z,35.67
2022-11-03T21:56:26.925Z,32.17
2022-11-03T21:58:56.479Z,25.27
2022-11-03T22:01:27.398Z,28.60
2022-11-03T22:03:58.548Z,31.47
2022-11-03T22:06:28.489Z,32.23
2022-11-03T22:08:57.918Z,26.97
2022-11-03T22:11:27.128Z,31.50
2022-11-03T22:13:58.542Z,32.07
2022-11-03T22:16:37.927Z,25.97
2022-11-03T22:19:26.275Z,23.77
2022-11-03T22:22:12.947Z,25.77
2022-11-03T22:24:59.765Z,26.53
2022-11-03T22:27:30.408Z,24.50
2022-11-03T22:30:17.059Z,28.17
2022-11-03T22:32:52.733Z,26.77
2022-11-03T22:35:45.526Z,22.43
2022-11-03T22:38:16.765Z,27.63
2022-11-03T22:41:06.170Z,25.03
2022-11-03T22:43:52.843Z,26.17
2022-11-03T22:46:21.918Z,33.23
2022-11-03T22:48:52.697Z,26.27
2022-11-03T22:51:21.951Z,24.13
2022-11-03T22:54:08.913Z,19.90
2022-11-03T22:56:38.752Z,21.80
2022-11-03T22:59:08.624Z,20.43
2022-11-03T23:01:38.345Z,19.37
2022-11-03T23:04:09.698Z,23.83
2022-11-03T23:06:41.302Z,24.10
2022-11-03T23:09:12.329Z,25.93
2022-11-03T23:11:41.560Z,23.60
2022-11-03T23:14:12.443Z,24.77
2022-11-03T23:16:43.153Z,20.50
2022-11-03T23:19:32.304Z,22.03
2022-11-03T23:22:02.635Z,24.20
2022-11-03T23:24:49.458Z,20.83
2022-11-03T23:27:18.542Z,20.97
2022-11-03T23:29:47.646Z,20.10
2022-11-03T23:32:16.881Z,20.57
2022-11-03T23:34:47.362Z,19.77
2022-11-03T23:37:16.530Z,22.03
2022-11-03T23:39:45.542Z,19.53
2022-11-03T23:42:14.666Z,22.40
2022-11-03T23:45:01.358Z,22.57
2022-11-03T23:47:48.306Z,17.27
2022-11-03T23:50:18.942Z,17.70
2022-11-03T23:52:48.269Z,18.53
2022-11-03T23:55:17.497Z,16.83
2022-11-03T23:58:03.992Z,19.83
